地図

経路データ

SID SEASON NUMBER BASIN SUBBASIN NAME ISO_TIME NATURE LAT LON WMO_WIND WMO_PRES WMO_AGENCY TRACK_TYPE DIST2LAND LANDFALL IFLAG USA_AGENCY USA_ATCF_ID USA_LAT USA_LON USA_RECORD USA_STATUS USA_WIND USA_PRES USA_SSHS USA_R34_NE USA_R34_SE USA_R34_SW USA_R34_NW USA_R50_NE USA_R50_SE USA_R50_SW USA_R50_NW USA_R64_NE USA_R64_SE USA_R64_SW USA_R64_NW USA_POCI USA_ROCI USA_RMW USA_EYE TOKYO_LAT TOKYO_LON TOKYO_GRADE TOKYO_WIND TOKYO_PRES TOKYO_R50_DIR TOKYO_R50_LONG TOKYO_R50_SHORT TOKYO_R30_DIR TOKYO_R30_LONG TOKYO_R30_SHORT TOKYO_LAND CMA_LAT CMA_LON CMA_CAT CMA_WIND CMA_PRES HKO_LAT HKO_LON HKO_CAT HKO_WIND HKO_PRES NEWDELHI_LAT NEWDELHI_LON NEWDELHI_GRADE NEWDELHI_WIND NEWDELHI_PRES NEWDELHI_CI NEWDELHI_DP NEWDELHI_POCI REUNION_LAT REUNION_LON REUNION_TYPE REUNION_WIND REUNION_PRES REUNION_TNUM REUNION_CI REUNION_RMW REUNION_R34_NE REUNION_R34_SE REUNION_R34_SW REUNION_R34_NW REUNION_R50_NE REUNION_R50_SE REUNION_R50_SW REUNION_R50_NW REUNION_R64_NE REUNION_R64_SE REUNION_R64_SW REUNION_R64_NW BOM_LAT BOM_LON BOM_TYPE BOM_WIND BOM_PRES BOM_TNUM BOM_CI BOM_RMW BOM_R34_NE BOM_R34_SE BOM_R34_SW BOM_R34_NW BOM_R50_NE BOM_R50_SE BOM_R50_SW BOM_R50_NW BOM_R64_NE BOM_R64_SE BOM_R64_SW BOM_R64_NW BOM_ROCI BOM_POCI BOM_EYE BOM_POS_METHOD BOM_PRES_METHOD NADI_LAT NADI_LON NADI_CAT NADI_WIND NADI_PRES WELLINGTON_LAT WELLINGTON_LON WELLINGTON_WIND WELLINGTON_PRES DS824_LAT DS824_LON DS824_STAGE DS824_WIND DS824_PRES TD9636_LAT TD9636_LON TD9636_STAGE TD9636_WIND TD9636_PRES TD9635_LAT TD9635_LON TD9635_WIND TD9635_PRES TD9635_ROCI NEUMANN_LAT NEUMANN_LON NEUMANN_CLASS NEUMANN_WIND NEUMANN_PRES MLC_LAT MLC_LON MLC_CLASS MLC_WIND MLC_PRES USA_GUST BOM_GUST BOM_GUST_PER REUNION_GUST REUNION_GUST_PER USA_SEAHGT USA_SEARAD_NE USA_SEARAD_SE USA_SEARAD_SW USA_SEARAD_NW STORM_SPEED STORM_DIR
1950256N14137 1950 79 WP MM MISSATHA 1950-09-12 18:00:00 TS 14.3000 137.400 main 1309 1279 __O___________ -1 14.3000 137.400 0 1005 8 299
1950256N14137 1950 79 WP MM MISSATHA 1950-09-12 21:00:00 TS 14.4977 137.035 main 1271 1243 __P___________ -1 14.4977 137.035 0 1004 8 301
1950256N14137 1950 79 WP MM MISSATHA 1950-09-13 00:00:00 TS 14.7000 136.700 main 1243 1216 __O___________ -1 14.7000 136.700 0 1004 7 304
1950256N14137 1950 79 WP MM MISSATHA 1950-09-13 03:00:00 TS 14.9074 136.407 main 1216 1190 __P___________ -1 14.9074 136.407 0 1003 7 305
1950256N14137 1950 79 WP MM MISSATHA 1950-09-13 06:00:00 TS 15.1000 136.100 main 1190 1155 __O___________ -1 15.1000 136.100 0 1003 8 298
1950256N14137 1950 79 WP MM MISSATHA 1950-09-13 09:00:00 TS 15.2650 135.708 main 1155 1117 __P___________ -1 15.2650 135.708 0 1002 8 291
1950256N14137 1950 79 WP MM MISSATHA 1950-09-13 12:00:00 TS 15.4000 135.300 main 1117 1090 __O___________ -1 15.4000 135.300 0 1001 8 289
1950256N14137 1950 79 WP MM MISSATHA 1950-09-13 15:00:00 TS 15.5149 134.935 main 1080 1053 __P___________ -1 15.5149 134.935 0 1000 7 286
1950256N14137 1950 79 WP MM MISSATHA 1950-09-13 18:00:00 TS 15.6000 134.600 main 1053 1027 __O___________ -1 15.6000 134.600 1 29 999 6 284
1950256N14137 1950 79 WP MM MISSATHA 1950-09-13 21:00:00 TS 15.6649 134.300 main 1027 997 __P___________ -1 15.6649 134.300 1 29 998 6 280
1950256N14137 1950 79 WP MM MISSATHA 1950-09-14 00:00:00 TS 15.7000 134.000 main 997 968 __O___________ -1 15.7000 134.000 1 29 998 6 273
1950256N14137 1950 79 WP MM MISSATHA 1950-09-14 03:00:00 TS 15.6999 133.665 main 968 928 __P___________ -1 15.6999 133.665 1 29 998 7 270
1950256N14137 1950 79 WP MM MISSATHA 1950-09-14 06:00:00 TS 15.7000 133.300 main 928 894 __O___________ -1 15.7000 133.300 1 29 998 7 274
1950256N14137 1950 79 WP MM MISSATHA 1950-09-14 09:00:00 TS 15.7500 132.900 main 894 885 __P___________ -1 15.7500 132.900 1 33 997 4 258
1950256N14137 1950 79 WP MM MISSATHA 1950-09-14 12:00:00 TS 15.6200 132.920 main 885 855 __O_______O___ -1 15.8000 132.500 2 38 996 14.9000 134.600 7 3 238
1950256N14137 1950 79 WP MM MISSATHA 1950-09-14 15:00:00 TS 15.5804 132.619 main 855 817 __P_______P___ -1 15.7924 132.150 2 38 996 15.1565 133.557 7 8 271
1950256N14137 1950 79 WP MM MISSATHA 1950-09-14 18:00:00 TS 15.6278 132.126 main 807 766 __O_______P___ -1 15.8000 131.800 2 38 996 15.3982 132.560 7 11 279
1950256N14137 1950 79 WP MM MISSATHA 1950-09-14 21:00:00 TS 15.7502 131.540 main 762 723 __P_______P___ -1 15.8849 131.423 2 38 996 15.6156 131.658 7 12 284
1950256N14137 1950 79 WP MM MISSATHA 1950-09-15 00:00:00 TS 15.9000 130.950 main 723 678 __O_______O___ -1 16.0000 131.000 2 38 996 15.8000 130.900 7 11 284
1950256N14137 1950 79 WP MM MISSATHA 1950-09-15 03:00:00 TS 16.0208 130.416 main 678 650 __P_______P___ -1 16.0925 130.515 2 38 996 15.9490 130.318 7 10 284
1950256N14137 1950 79 WP MM MISSATHA 1950-09-15 06:00:00 TS 16.1412 129.938 main 640 610 __O_______P___ -1 16.2000 130.000 2 38 996 16.0824 129.876 7 9 286
1950256N14137 1950 79 WP MM MISSATHA 1950-09-15 09:00:00 TS 16.2798 129.503 main 610 577 __P_______P___ -1 16.3350 129.485 2 38 995 16.2246 129.521 7 9 291
1950256N14137 1950 79 WP MM MISSATHA 1950-09-15 12:00:00 TS 16.4500 129.100 main 582 551 __O_______O___ -1 16.5000 129.000 2 38 994 16.4000 129.200 7 9 293
1950256N14137 1950 79 WP MM MISSATHA 1950-09-15 15:00:00 TS 16.6198 128.661 main 551 529 __P_______P___ -1 16.6774 128.577 2 38 994 16.5621 128.744 7 9 296
1950256N14137 1950 79 WP MM MISSATHA 1950-09-15 18:00:00 TS 16.8352 128.261 main 529 518 __O_______P___ -1 16.9000 128.200 2 38 994 16.7704 128.322 7 9 304
1950256N14137 1950 79 WP MM MISSATHA 1950-09-15 21:00:00 TS 17.1117 127.897 main 518 518 __P_______P___ -1 17.1550 127.805 2 38 994 17.0684 127.988 7 9 319
1950256N14137 1950 79 WP MM MISSATHA 1950-09-16 00:00:00 TS 17.5000 127.650 main 534 527 __O_______O___ -1 17.5000 127.500 2 38 994 17.5000 127.800 7 10 339
1950256N14137 1950 79 WP MM MISSATHA 1950-09-16 03:00:00 TS 18.0521 127.517 main 544 544 __P_______P___ -1 17.9473 127.295 2 43 993 18.1568 127.739 7 12 356
1950256N14137 1950 79 WP MM MISSATHA 1950-09-16 06:00:00 TS 18.7190 127.568 main 559 559 __O_______P___ -1 18.5000 127.300 3 48 992 18.9381 127.836 7 14 11
1950256N14137 1950 79 WP MM MISSATHA 1950-09-16 09:00:00 TS 19.4388 127.810 main 589 589 __P_______P___ -1 19.1272 127.530 3 48 992 19.7503 128.089 7 16 24
1950256N14137 1950 79 WP MM MISSATHA 1950-09-16 12:00:00 TS 20.1500 128.250 main 661 661 __O_______O___ -1 19.8000 128.000 3 48 992 20.5000 128.500 7 17 37
1950256N14137 1950 79 WP MM MISSATHA 1950-09-16 15:00:00 TS 20.7834 128.886 main 741 741 __P_______P___ -1 20.4655 128.669 3 48 992 21.1012 129.103 7 18 47
1950256N14137 1950 79 WP MM MISSATHA 1950-09-16 18:00:00 TS 21.3594 129.622 main 833 833 __O_______P___ -1 21.1000 129.400 3 48 992 21.6187 129.844 7 17 50
1950256N14137 1950 79 WP MM MISSATHA 1950-09-16 21:00:00 TS 21.8693 130.297 main 905 905 __P_______P___ -1 21.6871 129.980 3 48 992 22.0514 130.613 7 15 52
1950256N14137 1950 79 WP MM MISSATHA 1950-09-17 00:00:00 TS 22.3000 130.900 main 950 940 __O_______O___ -1 22.2000 130.500 3 48 992 22.4000 131.300 7 13 52
1950256N14137 1950 79 WP MM MISSATHA 1950-09-17 03:00:00 TS 22.6576 131.388 main 929 909 __P_______P___ -1 22.6298 131.015 3 48 991 22.6854 131.761 7 11 52
1950256N14137 1950 79 WP MM MISSATHA 1950-09-17 06:00:00 TS 22.9477 131.811 main 911 881 __O_______P___ -1 23.0000 131.500 3 48 990 22.8954 132.123 7 9 53
1950256N14137 1950 79 WP MM MISSATHA 1950-09-17 09:00:00 TS 23.2075 132.190 main 883 865 __P_______P___ -1 23.3573 131.958 3 48 990 23.0578 132.423 7 8 53
1950256N14137 1950 79 WP MM MISSATHA 1950-09-17 12:00:00 TS 23.4500 132.550 main 858 843 __O_______O___ -1 23.7000 132.400 3 48 990 23.2000 132.700 7 45 8 54
1950256N14137 1950 79 WP MM MISSATHA 1950-09-17 15:00:00 TS 23.6895 132.907 main 843 819 __P_______P___ -1 24.0347 132.828 3 48 990 23.3444 132.986 7 47 9 50
1950256N14137 1950 79 WP MM MISSATHA 1950-09-17 18:00:00 TS 24.0116 133.293 main 822 793 __O_______P___ -1 24.4000 133.300 3 48 990 23.4938 133.283 7 50 11 47
1950256N14137 1950 79 WP MM MISSATHA 1950-09-17 21:00:00 TS 24.4134 133.752 main 797 761 __P_______P___ -1 24.7969 133.834 3 53 989 23.6463 133.589 7 52 31 53
1950256N14137 1950 79 WP MM MISSATHA 1950-09-18 00:00:00 TS 25.8889 135.989 main 760 735 O_O______OOO__ jtwc_wp WP111950 27.0000 138.000 40 0 25.3000 134.500 3 58 988 27.0000 138.000 TC 40 23.8000 133.900 7 55 27.0000 138.000 40 990 180 40 50
1950256N14137 1950 79 WP MM MISSATHA 1950-09-18 03:00:00 TS 26.9649 137.137 main 724 669 P_P______P_P__ WP111950 27.4999 138.015 45 0 25.8947 135.327 3 58 987 27.4999 138.015 TC 45 7 27.4999 138.015 45 988 180 23 40
1950256N14137 1950 79 WP MM MISSATHA 1950-09-18 06:00:00 TS 27.6751 137.678 main 661 609 O_O______O_O__ jtwc_wp WP111950 28.0000 138.100 50 0 26.7000 136.300 3 58 986 28.0000 138.100 TC 50 7 28.0000 138.100 50 987 180 16 32
1950256N14137 1950 79 WP MM MISSATHA 1950-09-18 09:00:00 TS 28.3507 138.130 main 599 553 P_P______P_P__ WP111950 28.5001 138.292 52 0 27.7532 137.400 3 58 984 28.5001 138.292 TC 52 7 28.5001 138.292 52 985 180 15 29
1950256N14137 1950 79 WP MM MISSATHA 1950-09-18 12:00:00 TS 29.0000 138.500 main 553 504 O_O______O_O__ jtwc_wp WP111950 29.0000 138.500 55 0 29.0000 138.500 3 58 983 29.0000 138.500 TC 55 29.0000 138.500 55 984 180 14 24
1950256N14137 1950 79 WP MM MISSATHA 1950-09-18 15:00:00 TS 29.6598 138.781 main 500 456 P_P______P_P__ WP111950 29.4022 138.565 55 0 30.2666 139.441 3 63 981 29.4022 138.565 TC 55 29.4022 138.565 55 984 210 16 19
1950256N14137 1950 79 WP MM MISSATHA 1950-09-18 18:00:00 TS 30.4607 139.091 main 448 351 O_O______O_O__ jtwc_wp WP111950 30.0000 138.700 55 0 31.7000 140.300 4 68 980 30.0000 138.700 TC 55 30.0000 138.700 55 985 240 20 19
1950256N14137 1950 79 WP MM MISSATHA 1950-09-18 21:00:00 TS 31.5288 139.512 main 351 213 P_P______P_P__ WP111950 30.9618 139.013 55 0 33.2561 141.108 4 68 980 30.9618 139.013 TC 55 30.9618 139.013 55 986 300 28 21
1950256N14137 1950 79 WP MM MISSATHA 1950-09-19 00:00:00 MX 33.1000 140.286 main 204 71 O_O______O_O__ jtwc_wp WP111950 32.3000 139.600 55 0 35.1000 142.000 9 68 980 32.3000 139.600 TC 55 32.3000 139.600 55 987 360 42 24
1950256N14137 1950 79 WP MM MISSATHA 1950-09-19 03:00:00 MX 35.3567 141.512 main 63 63 P_P______P_P__ WP111950 33.9654 140.534 50 0 37.4437 142.980 9 980 33.9654 140.534 TC 50 33.9654 140.534 50 988 360 55 27
1950256N14137 1950 79 WP MM MISSATHA 1950-09-19 06:00:00 MX 38.0286 143.300 main 160 160 O_O______O_O__ jtwc_wp WP111950 35.8000 141.700 45 0 39.7000 144.500 9 981 35.8000 141.700 TC 45 35.8000 141.700 45 990 360 72 36
1950256N14137 1950 79 WP MM MISSATHA 1950-09-19 09:00:00 ET 41.2022 146.942 main 250 247 __P___________ WP111950 -1 41.2022 146.942 9 982 TC 66 49
1950256N14137 1950 79 WP MM MISSATHA 1950-09-19 12:00:00 ET 42.4000 149.900 main 324 319 __O___________ -1 42.4000 149.900 9 983 51 62
1950256N14137 1950 79 WP MM MISSATHA 1950-09-19 15:00:00 ET 43.6098 153.067 main 345 342 __P___________ -1 43.6098 153.067 9 983 51 60
1950256N14137 1950 79 WP MM MISSATHA 1950-09-19 18:00:00 ET 45.0000 156.000 main 451 393 __O___________ -1 45.0000 156.000 9 984 49 46
1950256N14137 1950 79 WP MM MISSATHA 1950-09-19 21:00:00 ET 46.9898 158.091 main 387 315 __P___________ -1 46.9898 158.091 9 984 48 34
1950256N14137 1950 79 WP MM MISSATHA 1950-09-20 00:00:00 ET 49.0000 160.000 main 315 296 __O___________ -1 49.0000 160.000 9 985 45 38
1950256N14137 1950 79 WP MM MISSATHA 1950-09-20 03:00:00 ET 50.5053 162.350 main 328 318 __P___________ -1 50.5053 162.350 9 983 40 52
1950256N14137 1950 79 WP MM MISSATHA 1950-09-20 06:00:00 ET 51.5000 165.000 main 375 375 __O___________ -1 51.5000 165.000 9 982 38 68
1950256N14137 1950 79 WP MM MISSATHA 1950-09-20 09:00:00 ET 51.9529 167.995 main 490 490 __P___________ -1 51.9529 167.995 9 980 37 82
1950256N14137 1950 79 WP MM MISSATHA 1950-09-20 12:00:00 ET 52.0000 171.000 main 658 658 __O___________ -1 52.0000 171.000 9 978 35 90
1950256N14137 1950 79 WP MM MISSATHA 1950-09-20 15:00:00 ET 51.9265 173.740 main 819 819 __P___________ -1 51.9265 173.740 9 976 33 94
1950256N14137 1950 79 WP MM MISSATHA 1950-09-20 18:00:00 ET 51.8000 176.300 main 967 __O___________ -1 51.8000 176.300 9 974 32 95

デジタル台風データ・検索

IBTrACS Databaseについて

本データベースは、米国NOAAが公開する1842年以降の世界の熱帯低気圧のベストトラックデータアーカイブInternational Best Track Archive for Climate Stewardship (IBTrACS)を、ウェブで閲覧しやすい形式に変換したものです。

最終更新日:2021-10-21